TVF17SQ GOBD-LFRS
Flight info
| Callsign | TVF17SQ |
|---|---|
| Flight time | 4h 51m |
| Altitude | 33000 |
| Route | BIKIS1B BIKIS UB601 KETAS DCT ZRT UR975 DIDAN/N0444F340 UR975 ADM UR724 OSLAD DCT OBOLO DCT VFA DCT ALAGU DCT ELVAR DCT BARDI DCT ZMR DCT NUBLO DCT RONSI DCT DELOG/N0426F320 DCT YURZI UL14 TEPRA DCT EPIXO |
| Aircraft | B738/M-SDE2E3FGHIRWXY/LB1 |
Departure
| Time | 2026-04-26 10:29 |
|---|---|
| Airport | Blaise Diagne International Airport (GOBD) |
Arrival
| Time | 2026-04-26 15:21 |
|---|---|
| Airport | Nantes Atlantique Airport (LFRS) |
| Time | Latitude | Longitude | Altitude | Speed | Heading |
|---|---|---|---|---|---|
| 2026-04-26 10:03 | 14.67431 | -17.06879 | 291 ft | 0 kts | 180° |
| 2026-04-26 10:17 | 14.67447 | -17.06879 | 296 ft | 4 kts | 180° |
| 2026-04-26 10:17 | 14.67474 | -17.06879 | 296 ft | 4 kts | 180° |
| 2026-04-26 10:17 | 14.67501 | -17.06879 | 295 ft | 4 kts | 180° |
| 2026-04-26 10:17 | 14.67522 | -17.06879 | 292 ft | 4 kts | 201° |
| 2026-04-26 10:18 | 14.67535 | -17.06863 | 290 ft | 4 kts | 268° |
| 2026-04-26 10:18 | 14.67536 | -17.06837 | 292 ft | 4 kts | 269° |
| 2026-04-26 10:18 | 14.67536 | -17.06828 | 291 ft | 2 kts | 269° |
| 2026-04-26 10:22 | 14.67536 | -17.06843 | 290 ft | 4 kts | 270° |
| 2026-04-26 10:22 | 14.67535 | -17.06875 | 290 ft | 5 kts | 269° |
| 2026-04-26 10:23 | 14.67535 | -17.06925 | 291 ft | 11 kts | 270° |
| 2026-04-26 10:23 | 14.67534 | -17.07020 | 291 ft | 14 kts | 270° |
| 2026-04-26 10:23 | 14.67482 | -17.07091 | 292 ft | 13 kts | 193° |
| 2026-04-26 10:23 | 14.67391 | -17.07093 | 293 ft | 13 kts | 176° |
| 2026-04-26 10:24 | 14.67303 | -17.07093 | 293 ft | 13 kts | 180° |
| 2026-04-26 10:24 | 14.67213 | -17.07093 | 294 ft | 14 kts | 180° |
| 2026-04-26 10:24 | 14.67109 | -17.07092 | 295 ft | 16 kts | 179° |
| 2026-04-26 10:24 | 14.66998 | -17.07090 | 298 ft | 16 kts | 175° |
| 2026-04-26 10:25 | 14.66888 | -17.07089 | 296 ft | 15 kts | 177° |
| 2026-04-26 10:25 | 14.66779 | -17.07088 | 298 ft | 17 kts | 179° |
| 2026-04-26 10:25 | 14.66640 | -17.07087 | 295 ft | 22 kts | 179° |
| 2026-04-26 10:25 | 14.66481 | -17.07085 | 292 ft | 23 kts | 178° |
| 2026-04-26 10:26 | 14.66325 | -17.07084 | 293 ft | 22 kts | 174° |
| 2026-04-26 10:26 | 14.66173 | -17.07083 | 289 ft | 22 kts | 180° |
| 2026-04-26 10:26 | 14.66026 | -17.07082 | 286 ft | 21 kts | 179° |
| 2026-04-26 10:26 | 14.65883 | -17.07080 | 284 ft | 20 kts | 180° |
| 2026-04-26 10:27 | 14.65749 | -17.07078 | 283 ft | 18 kts | 179° |
| 2026-04-26 10:27 | 14.65659 | -17.07079 | 281 ft | 7 kts | 187° |
| 2026-04-26 10:27 | 14.65627 | -17.07115 | 280 ft | 7 kts | 254° |
| 2026-04-26 10:27 | 14.65620 | -17.07165 | 280 ft | 7 kts | 266° |
| 2026-04-26 10:28 | 14.65617 | -17.07218 | 280 ft | 8 kts | 267° |
| 2026-04-26 10:28 | 14.65644 | -17.07266 | 280 ft | 9 kts | 351° |
| 2026-04-26 10:28 | 14.65704 | -17.07268 | 281 ft | 10 kts | 359° |
| 2026-04-26 10:28 | 14.65928 | -17.07270 | 282 ft | 61 kts | 359° |
| 2026-04-26 10:29 | 14.66541 | -17.07277 | 297 ft | 114 kts | 359° |
| 2026-04-26 10:29 | 14.67474 | -17.07286 | 294 ft | 157 kts | 359° |
| 2026-04-26 10:29 | 14.68638 | -17.07297 | 661 ft | 167 kts | 359° |
| 2026-04-26 10:29 | 14.69803 | -17.07305 | 1301 ft | 168 kts | 359° |
| 2026-04-26 10:30 | 14.70988 | -17.07317 | 1859 ft | 173 kts | 359° |
| 2026-04-26 10:30 | 14.72232 | -17.07329 | 2284 ft | 185 kts | 358° |
| 2026-04-26 10:30 | 14.73528 | -17.07354 | 2695 ft | 194 kts | 359° |
| 2026-04-26 10:30 | 14.74913 | -17.07356 | 2993 ft | 203 kts | 359° |
| 2026-04-26 10:31 | 14.76377 | -17.07355 | 3194 ft | 219 kts | 1° |
| 2026-04-26 10:31 | 14.77919 | -17.07349 | 3608 ft | 225 kts | 359° |
| 2026-04-26 10:31 | 14.79562 | -17.07371 | 3725 ft | 248 kts | 359° |
| 2026-04-26 10:31 | 14.81336 | -17.07407 | 4140 ft | 259 kts | 358° |
| 2026-04-26 10:32 | 14.83151 | -17.07453 | 4705 ft | 263 kts | 358° |
| 2026-04-26 10:32 | 14.85003 | -17.07491 | 5229 ft | 269 kts | 359° |
| 2026-04-26 10:32 | 14.86895 | -17.07495 | 5733 ft | 274 kts | 359° |
| 2026-04-26 10:32 | 14.88818 | -17.07503 | 6246 ft | 279 kts | 359° |
| 2026-04-26 10:33 | 14.90769 | -17.07516 | 6720 ft | 283 kts | 359° |
| 2026-04-26 10:33 | 14.92754 | -17.07528 | 7257 ft | 286 kts | 359° |
| 2026-04-26 10:33 | 14.94750 | -17.07545 | 7789 ft | 288 kts | 359° |
| 2026-04-26 10:33 | 14.96770 | -17.07563 | 8233 ft | 293 kts | 358° |
| 2026-04-26 10:34 | 14.98821 | -17.07581 | 8735 ft | 296 kts | 358° |
| 2026-04-26 10:34 | 15.00887 | -17.07600 | 9250 ft | 299 kts | 358° |
| 2026-04-26 10:34 | 15.02976 | -17.07620 | 9735 ft | 302 kts | 358° |
| 2026-04-26 10:34 | 15.05090 | -17.07640 | 10178 ft | 307 kts | 358° |
| 2026-04-26 10:35 | 15.07288 | -17.07662 | 10281 ft | 325 kts | 358° |
| 2026-04-26 10:35 | 15.09603 | -17.07686 | 10416 ft | 340 kts | 358° |
| 2026-04-26 10:35 | 15.12016 | -17.07709 | 10545 ft | 355 kts | 358° |
| 2026-04-26 10:35 | 15.14528 | -17.07732 | 10794 ft | 365 kts | 358° |
| 2026-04-26 10:36 | 15.17048 | -17.07755 | 11224 ft | 369 kts | 358° |
| 2026-04-26 10:36 | 15.19618 | -17.07779 | 11731 ft | 371 kts | 358° |
| 2026-04-26 10:36 | 15.22209 | -17.07803 | 12229 ft | 374 kts | 358° |
| 2026-04-26 10:36 | 15.24821 | -17.07827 | 12708 ft | 378 kts | 358° |
| 2026-04-26 10:37 | 15.27460 | -17.07852 | 13251 ft | 379 kts | 357° |
| 2026-04-26 10:37 | 15.30097 | -17.07877 | 13804 ft | 380 kts | 357° |
| 2026-04-26 10:37 | 15.32751 | -17.07901 | 14338 ft | 382 kts | 358° |
| 2026-04-26 10:37 | 15.35409 | -17.07628 | 14824 ft | 388 kts | 13° |
| 2026-04-26 10:38 | 15.38006 | -17.06827 | 15367 ft | 390 kts | 15° |
| 2026-04-26 10:38 | 15.40601 | -17.05974 | 15834 ft | 393 kts | 15° |
| 2026-04-26 10:38 | 15.43218 | -17.05107 | 16321 ft | 395 kts | 15° |
| 2026-04-26 10:38 | 15.45848 | -17.04245 | 16791 ft | 397 kts | 15° |
| 2026-04-26 10:39 | 15.48493 | -17.03390 | 17247 ft | 400 kts | 15° |
| 2026-04-26 10:39 | 15.51159 | -17.02538 | 17702 ft | 402 kts | 14° |
| 2026-04-26 10:39 | 15.53837 | -17.01688 | 18149 ft | 404 kts | 14° |
| 2026-04-26 10:39 | 15.56530 | -17.00835 | 18578 ft | 406 kts | 14° |
| 2026-04-26 10:40 | 15.59239 | -16.99981 | 18971 ft | 409 kts | 14° |
| 2026-04-26 10:40 | 15.61976 | -16.99119 | 19334 ft | 412 kts | 14° |
| 2026-04-26 10:40 | 15.64725 | -16.98253 | 19735 ft | 414 kts | 14° |
| 2026-04-26 10:40 | 15.67493 | -16.97381 | 20081 ft | 418 kts | 14° |
| 2026-04-26 10:41 | 15.70289 | -16.96499 | 20435 ft | 421 kts | 14° |
| 2026-04-26 10:41 | 15.73096 | -16.95614 | 20799 ft | 423 kts | 14° |
| 2026-04-26 10:41 | 15.75922 | -16.94722 | 21143 ft | 425 kts | 14° |
| 2026-04-26 10:41 | 15.78760 | -16.93827 | 21475 ft | 428 kts | 14° |
| 2026-04-26 10:42 | 15.81580 | -16.92936 | 21791 ft | 430 kts | 14° |
| 2026-04-26 10:42 | 15.84450 | -16.92029 | 22095 ft | 433 kts | 14° |
| 2026-04-26 10:42 | 15.87338 | -16.91115 | 22397 ft | 435 kts | 14° |
| 2026-04-26 10:42 | 15.90242 | -16.90197 | 22698 ft | 437 kts | 14° |
| 2026-04-26 10:43 | 15.93157 | -16.89277 | 22978 ft | 439 kts | 14° |
| 2026-04-26 10:43 | 15.96091 | -16.88350 | 23251 ft | 442 kts | 14° |
| 2026-04-26 10:43 | 15.99038 | -16.87418 | 23547 ft | 443 kts | 14° |
| 2026-04-26 10:43 | 16.01991 | -16.86483 | 23826 ft | 445 kts | 14° |
| 2026-04-26 10:44 | 16.04969 | -16.85540 | 24041 ft | 449 kts | 13° |
| 2026-04-26 10:44 | 16.07964 | -16.84592 | 24262 ft | 452 kts | 13° |
| 2026-04-26 10:44 | 16.10974 | -16.83638 | 24547 ft | 453 kts | 13° |
| 2026-04-26 10:44 | 16.13992 | -16.82682 | 24837 ft | 454 kts | 13° |
| 2026-04-26 10:45 | 16.17009 | -16.81725 | 25126 ft | 454 kts | 13° |
| 2026-04-26 10:45 | 16.20037 | -16.80764 | 25392 ft | 455 kts | 13° |
| 2026-04-26 10:45 | 16.23072 | -16.79802 | 25649 ft | 457 kts | 13° |
| 2026-04-26 10:45 | 16.26116 | -16.78836 | 25893 ft | 458 kts | 12° |
| 2026-04-26 10:46 | 16.29153 | -16.77818 | 26138 ft | 461 kts | 15° |
| 2026-04-26 10:46 | 16.32140 | -16.76579 | 26382 ft | 463 kts | 19° |
| 2026-04-26 10:46 | 16.35092 | -16.75216 | 26586 ft | 466 kts | 20° |
| 2026-04-26 10:46 | 16.38047 | -16.73802 | 26798 ft | 468 kts | 20° |
| 2026-04-26 10:47 | 16.41001 | -16.72386 | 27023 ft | 468 kts | 20° |
| 2026-04-26 10:47 | 16.43972 | -16.70979 | 27245 ft | 469 kts | 19° |
| 2026-04-26 10:47 | 16.46954 | -16.69586 | 27457 ft | 470 kts | 19° |
| 2026-04-26 10:47 | 16.49945 | -16.68204 | 27673 ft | 471 kts | 18° |
| 2026-04-26 10:48 | 16.52951 | -16.66826 | 27865 ft | 472 kts | 18° |
| 2026-04-26 10:48 | 16.55962 | -16.65451 | 28066 ft | 473 kts | 18° |
| 2026-04-26 10:48 | 16.58981 | -16.64073 | 28251 ft | 475 kts | 18° |
| 2026-04-26 10:48 | 16.62010 | -16.62691 | 28419 ft | 476 kts | 18° |
| 2026-04-26 10:49 | 16.65047 | -16.61304 | 28597 ft | 477 kts | 18° |
| 2026-04-26 10:49 | 16.68054 | -16.59930 | 28785 ft | 478 kts | 18° |
| 2026-04-26 10:49 | 16.71103 | -16.58536 | 28983 ft | 479 kts | 18° |
| 2026-04-26 10:49 | 16.74152 | -16.57139 | 29205 ft | 478 kts | 18° |
| 2026-04-26 10:50 | 16.77189 | -16.55745 | 29501 ft | 476 kts | 17° |
| 2026-04-26 10:50 | 16.79239 | -16.54806 | 29671 ft | 476 kts | 17° |
| 2026-04-26 10:50 | 16.83287 | -16.52950 | 29987 ft | 475 kts | 17° |
| 2026-04-26 10:50 | 16.86307 | -16.51565 | 30244 ft | 474 kts | 17° |
| 2026-04-26 10:51 | 16.89326 | -16.50181 | 30480 ft | 473 kts | 17° |
| 2026-04-26 10:51 | 16.95332 | -16.47427 | 30835 ft | 475 kts | 17° |
| 2026-04-26 10:51 | 16.98393 | -16.46022 | 31079 ft | 474 kts | 17° |
| 2026-04-26 10:52 | 17.01376 | -16.44652 | 31290 ft | 474 kts | 17° |
| 2026-04-26 10:52 | 17.04435 | -16.43247 | 31457 ft | 475 kts | 17° |
| 2026-04-26 10:52 | 17.07420 | -16.41877 | 31632 ft | 475 kts | 17° |
| 2026-04-26 10:52 | 17.10448 | -16.40484 | 31828 ft | 475 kts | 17° |
| 2026-04-26 10:53 | 17.13478 | -16.39090 | 32010 ft | 476 kts | 16° |
| 2026-04-26 10:53 | 17.16502 | -16.37698 | 32219 ft | 475 kts | 16° |
| 2026-04-26 10:53 | 17.19527 | -16.36305 | 32448 ft | 474 kts | 16° |
| 2026-04-26 10:54 | 17.25578 | -16.33520 | 32740 ft | 477 kts | 16° |
| 2026-04-26 10:54 | 17.28610 | -16.32123 | 32880 ft | 477 kts | 16° |
| 2026-04-26 10:54 | 17.34695 | -16.29319 | 32911 ft | 478 kts | 16° |
| 2026-04-26 10:55 | 17.40767 | -16.26515 | 32918 ft | 476 kts | 16° |
| 2026-04-26 10:55 | 17.45839 | -16.24173 | 32914 ft | 475 kts | 16° |
| 2026-04-26 10:56 | 17.52868 | -16.20927 | 32918 ft | 474 kts | 16° |
| 2026-04-26 10:56 | 17.58908 | -16.18134 | 32916 ft | 475 kts | 15° |
| 2026-04-26 10:57 | 17.64962 | -16.15336 | 32913 ft | 476 kts | 16° |
| 2026-04-26 10:57 | 17.71023 | -16.12529 | 32904 ft | 477 kts | 15° |
| 2026-04-26 10:58 | 17.77108 | -16.09710 | 32911 ft | 478 kts | 15° |
| 2026-04-26 10:58 | 17.83196 | -16.06886 | 32916 ft | 479 kts | 15° |
| 2026-04-26 10:59 | 17.89305 | -16.04050 | 32919 ft | 480 kts | 15° |
| 2026-04-26 10:59 | 17.95426 | -16.01208 | 32918 ft | 482 kts | 15° |
| 2026-04-26 11:00 | 18.01565 | -15.98354 | 32919 ft | 482 kts | 15° |
| 2026-04-26 11:00 | 18.07705 | -15.95497 | 32917 ft | 483 kts | 16° |
| 2026-04-26 11:01 | 18.13589 | -15.91890 | 32927 ft | 494 kts | 27° |
| 2026-04-26 11:01 | 18.19223 | -15.87731 | 32915 ft | 495 kts | 28° |
| 2026-04-26 11:02 | 18.24848 | -15.83558 | 32917 ft | 494 kts | 27° |
| 2026-04-26 11:02 | 18.30479 | -15.79445 | 32915 ft | 492 kts | 27° |
| 2026-04-26 11:03 | 18.36080 | -15.75398 | 32913 ft | 491 kts | 27° |
| 2026-04-26 11:03 | 18.41708 | -15.71334 | 32923 ft | 490 kts | 27° |
| 2026-04-26 11:04 | 18.47330 | -15.67268 | 32915 ft | 490 kts | 27° |
| 2026-04-26 11:04 | 18.52953 | -15.63195 | 32921 ft | 490 kts | 27° |
| 2026-04-26 11:05 | 18.58576 | -15.59118 | 32918 ft | 491 kts | 27° |
| 2026-04-26 11:05 | 18.64212 | -15.55028 | 32915 ft | 492 kts | 27° |
| 2026-04-26 11:06 | 18.68907 | -15.51619 | 32920 ft | 493 kts | 27° |
| 2026-04-26 11:06 | 18.74568 | -15.47507 | 32918 ft | 495 kts | 27° |
| 2026-04-26 11:07 | 18.80243 | -15.43378 | 32916 ft | 496 kts | 27° |
| 2026-04-26 11:07 | 18.85926 | -15.39240 | 32913 ft | 497 kts | 27° |
| 2026-04-26 11:08 | 18.91623 | -15.35088 | 32916 ft | 498 kts | 27° |
| 2026-04-26 11:08 | 18.97319 | -15.30933 | 32928 ft | 498 kts | 27° |
| 2026-04-26 11:09 | 19.03023 | -15.26771 | 32921 ft | 499 kts | 27° |
| 2026-04-26 11:09 | 19.08730 | -15.22603 | 32930 ft | 499 kts | 27° |
| 2026-04-26 11:10 | 19.14450 | -15.18420 | 32924 ft | 499 kts | 27° |
| 2026-04-26 11:10 | 19.20165 | -15.14239 | 32929 ft | 499 kts | 27° |
| 2026-04-26 11:11 | 19.25872 | -15.10060 | 32933 ft | 500 kts | 27° |
| 2026-04-26 11:11 | 19.31586 | -15.05874 | 32936 ft | 499 kts | 27° |
| 2026-04-26 11:12 | 19.37296 | -15.01683 | 32934 ft | 499 kts | 27° |
| 2026-04-26 11:12 | 19.43003 | -14.97492 | 32938 ft | 499 kts | 27° |
| 2026-04-26 11:13 | 19.48672 | -14.93326 | 32943 ft | 499 kts | 27° |
| 2026-04-26 11:13 | 19.54382 | -14.89127 | 32947 ft | 499 kts | 27° |
| 2026-04-26 11:14 | 19.60084 | -14.84929 | 32944 ft | 499 kts | 27° |
| 2026-04-26 11:14 | 19.65790 | -14.80725 | 32953 ft | 499 kts | 27° |
| 2026-04-26 11:15 | 19.71501 | -14.76515 | 32956 ft | 500 kts | 27° |
| 2026-04-26 11:15 | 19.77210 | -14.72300 | 32955 ft | 501 kts | 27° |
| 2026-04-26 11:16 | 19.82933 | -14.68072 | 32961 ft | 501 kts | 28° |
| 2026-04-26 11:16 | 19.88656 | -14.63839 | 32967 ft | 501 kts | 28° |
| 2026-04-26 11:17 | 19.94386 | -14.59599 | 32963 ft | 502 kts | 28° |
| 2026-04-26 11:17 | 20.00114 | -14.55355 | 32959 ft | 502 kts | 27° |
| 2026-04-26 11:18 | 20.05844 | -14.51106 | 32967 ft | 502 kts | 27° |
| 2026-04-26 11:18 | 20.11577 | -14.46852 | 32984 ft | 503 kts | 27° |
| 2026-04-26 11:19 | 20.17312 | -14.42593 | 32971 ft | 503 kts | 27° |
| 2026-04-26 11:19 | 20.23061 | -14.38317 | 32984 ft | 504 kts | 27° |
| 2026-04-26 11:20 | 20.27840 | -14.34763 | 32982 ft | 504 kts | 27° |
| 2026-04-26 11:20 | 20.34559 | -14.29756 | 32976 ft | 504 kts | 27° |
| 2026-04-26 11:21 | 20.40309 | -14.25471 | 32982 ft | 504 kts | 27° |
| 2026-04-26 11:21 | 20.46054 | -14.21184 | 32985 ft | 504 kts | 27° |
| 2026-04-26 11:22 | 20.51759 | -14.16923 | 32980 ft | 504 kts | 27° |
| 2026-04-26 11:22 | 20.57499 | -14.12633 | 32985 ft | 504 kts | 27° |
| 2026-04-26 11:23 | 20.63233 | -14.08340 | 32996 ft | 503 kts | 27° |
| 2026-04-26 11:23 | 20.68962 | -14.04049 | 32996 ft | 503 kts | 28° |
| 2026-04-26 11:24 | 20.74688 | -13.99757 | 32978 ft | 503 kts | 28° |
| 2026-04-26 11:24 | 20.80409 | -13.95465 | 33002 ft | 502 kts | 28° |
| 2026-04-26 11:25 | 20.86136 | -13.91164 | 32989 ft | 503 kts | 28° |
| 2026-04-26 11:25 | 20.91860 | -13.86860 | 32999 ft | 503 kts | 28° |
| 2026-04-26 11:26 | 20.97589 | -13.82550 | 32995 ft | 503 kts | 28° |
| 2026-04-26 11:26 | 21.03313 | -13.78238 | 33002 ft | 503 kts | 28° |
| 2026-04-26 11:27 | 21.09043 | -13.73916 | 33002 ft | 504 kts | 28° |
| 2026-04-26 11:27 | 21.14776 | -13.69589 | 32999 ft | 505 kts | 28° |
| 2026-04-26 11:28 | 21.20520 | -13.65249 | 33002 ft | 506 kts | 28° |
| 2026-04-26 11:28 | 21.26274 | -13.60898 | 33002 ft | 506 kts | 28° |
| 2026-04-26 11:29 | 21.31988 | -13.56575 | 32996 ft | 507 kts | 29° |
| 2026-04-26 11:29 | 21.37749 | -13.52209 | 33003 ft | 507 kts | 29° |
| 2026-04-26 11:30 | 21.42535 | -13.48576 | 33002 ft | 507 kts | 29° |
| 2026-04-26 11:30 | 21.49259 | -13.43474 | 32999 ft | 507 kts | 29° |
| 2026-04-26 11:31 | 21.55020 | -13.39096 | 33002 ft | 507 kts | 29° |
| 2026-04-26 11:31 | 21.60781 | -13.34713 | 32997 ft | 507 kts | 29° |
| 2026-04-26 11:32 | 21.66528 | -13.30337 | 32998 ft | 506 kts | 29° |
| 2026-04-26 11:32 | 21.72271 | -13.25961 | 33000 ft | 506 kts | 29° |
| 2026-04-26 11:33 | 21.77968 | -13.21614 | 33000 ft | 505 kts | 29° |
| 2026-04-26 11:33 | 21.83697 | -13.17239 | 32999 ft | 505 kts | 29° |
| 2026-04-26 11:34 | 21.89426 | -13.12860 | 33003 ft | 505 kts | 29° |
| 2026-04-26 11:34 | 21.95145 | -13.08483 | 32996 ft | 505 kts | 29° |
| 2026-04-26 11:35 | 22.00870 | -13.04098 | 33002 ft | 505 kts | 29° |
| 2026-04-26 11:35 | 22.05629 | -13.00448 | 33009 ft | 505 kts | 30° |
| 2026-04-26 11:36 | 22.12319 | -12.95314 | 32997 ft | 505 kts | 30° |
| 2026-04-26 11:36 | 22.18037 | -12.90920 | 32999 ft | 505 kts | 30° |
| 2026-04-26 11:37 | 22.23752 | -12.86525 | 33000 ft | 504 kts | 30° |
| 2026-04-26 11:37 | 22.29456 | -12.82132 | 33003 ft | 503 kts | 30° |
| 2026-04-26 11:38 | 22.35152 | -12.77743 | 32999 ft | 503 kts | 30° |
| 2026-04-26 11:38 | 22.40847 | -12.73348 | 32999 ft | 502 kts | 30° |
| 2026-04-26 11:39 | 22.46528 | -12.68960 | 32996 ft | 502 kts | 30° |
| 2026-04-26 11:39 | 22.52208 | -12.64570 | 33000 ft | 502 kts | 30° |
| 2026-04-26 11:40 | 22.57885 | -12.60177 | 33002 ft | 502 kts | 30° |
| 2026-04-26 11:40 | 22.63565 | -12.55775 | 33009 ft | 502 kts | 30° |
| 2026-04-26 11:42 | 22.87617 | -12.41853 | 32988 ft | 486 kts | 11° |
| 2026-04-26 11:43 | 22.94050 | -12.39573 | 32997 ft | 486 kts | 11° |
| 2026-04-26 11:43 | 23.00471 | -12.37240 | 32989 ft | 487 kts | 12° |
| 2026-04-26 11:44 | 23.06895 | -12.34884 | 32996 ft | 487 kts | 12° |
| 2026-04-26 11:44 | 23.13316 | -12.32528 | 32991 ft | 487 kts | 12° |
| 2026-04-26 11:45 | 23.19741 | -12.30172 | 32986 ft | 487 kts | 12° |
| 2026-04-26 11:45 | 23.26162 | -12.27816 | 32988 ft | 487 kts | 12° |
| 2026-04-26 11:46 | 23.32574 | -12.25458 | 32996 ft | 486 kts | 12° |
| 2026-04-26 11:46 | 23.38982 | -12.23101 | 32982 ft | 486 kts | 12° |
| 2026-04-26 11:47 | 23.45392 | -12.20741 | 32997 ft | 486 kts | 12° |
| 2026-04-26 11:47 | 23.51802 | -12.18384 | 32996 ft | 486 kts | 12° |
| 2026-04-26 11:48 | 23.58212 | -12.16026 | 32981 ft | 486 kts | 12° |
| 2026-04-26 11:48 | 23.64608 | -12.13670 | 32978 ft | 485 kts | 12° |
| 2026-04-26 11:49 | 23.70961 | -12.11327 | 32977 ft | 485 kts | 13° |
| 2026-04-26 11:49 | 23.77342 | -12.08972 | 32976 ft | 484 kts | 12° |
| 2026-04-26 11:50 | 23.83726 | -12.06614 | 32987 ft | 484 kts | 13° |
| 2026-04-26 11:50 | 23.90105 | -12.04253 | 32975 ft | 484 kts | 13° |
| 2026-04-26 11:51 | 23.96473 | -12.01895 | 32988 ft | 483 kts | 13° |
| 2026-04-26 11:51 | 24.02843 | -11.99532 | 32985 ft | 483 kts | 13° |
| 2026-04-26 11:52 | 24.08134 | -11.97570 | 32980 ft | 484 kts | 13° |
| 2026-04-26 11:52 | 24.15590 | -11.94800 | 32985 ft | 484 kts | 12° |
| 2026-04-26 11:53 | 24.21969 | -11.92429 | 32980 ft | 484 kts | 13° |
| 2026-04-26 11:54 | 24.31540 | -11.88865 | 32980 ft | 485 kts | 13° |
| 2026-04-26 11:54 | 24.36842 | -11.86888 | 32980 ft | 485 kts | 13° |
| 2026-04-26 11:55 | 24.43227 | -11.84504 | 32978 ft | 485 kts | 13° |
| 2026-04-26 11:55 | 24.50659 | -11.81726 | 32978 ft | 485 kts | 13° |
| 2026-04-26 11:56 | 24.56015 | -11.79724 | 32986 ft | 486 kts | 13° |
| 2026-04-26 11:56 | 24.62413 | -11.77328 | 32998 ft | 486 kts | 13° |
| 2026-04-26 11:57 | 24.68809 | -11.74929 | 32986 ft | 486 kts | 13° |
| 2026-04-26 11:57 | 24.75163 | -11.72546 | 32985 ft | 486 kts | 13° |
| 2026-04-26 11:58 | 24.81556 | -11.70144 | 32991 ft | 485 kts | 13° |
| 2026-04-26 11:58 | 24.87944 | -11.67741 | 32987 ft | 485 kts | 13° |
| 2026-04-26 11:59 | 24.94333 | -11.65335 | 32996 ft | 485 kts | 13° |
| 2026-04-26 11:59 | 25.00720 | -11.62929 | 32983 ft | 485 kts | 13° |
| 2026-04-26 12:00 | 25.07097 | -11.60523 | 32988 ft | 485 kts | 13° |
| 2026-04-26 12:00 | 25.13475 | -11.58113 | 32997 ft | 485 kts | 13° |
| 2026-04-26 12:01 | 25.19853 | -11.55700 | 32989 ft | 484 kts | 13° |
| 2026-04-26 12:01 | 25.26210 | -11.53214 | 32985 ft | 485 kts | 14° |
| 2026-04-26 12:02 | 25.32535 | -11.50582 | 32986 ft | 486 kts | 15° |
| 2026-04-26 12:02 | 25.38856 | -11.47934 | 32998 ft | 486 kts | 14° |
| 2026-04-26 12:03 | 25.45179 | -11.45302 | 32979 ft | 485 kts | 14° |
| 2026-04-26 12:03 | 25.51504 | -11.42682 | 32995 ft | 485 kts | 16° |
| 2026-04-26 12:04 | 25.57828 | -11.40061 | 32979 ft | 486 kts | 16° |
| 2026-04-26 12:04 | 25.64164 | -11.37429 | 32979 ft | 486 kts | 16° |
| 2026-04-26 12:05 | 25.70495 | -11.34799 | 32980 ft | 486 kts | 16° |
| 2026-04-26 12:05 | 25.76782 | -11.32184 | 32980 ft | 486 kts | 16° |
| 2026-04-26 12:06 | 25.83111 | -11.29547 | 32978 ft | 486 kts | 16° |
| 2026-04-26 12:06 | 25.89449 | -11.26904 | 32982 ft | 487 kts | 16° |
| 2026-04-26 12:07 | 25.95790 | -11.24256 | 32988 ft | 487 kts | 16° |
| 2026-04-26 12:07 | 26.02127 | -11.21606 | 32979 ft | 487 kts | 16° |
| 2026-04-26 12:08 | 26.08465 | -11.18955 | 32982 ft | 486 kts | 16° |
| 2026-04-26 12:08 | 26.14800 | -11.16304 | 32980 ft | 486 kts | 16° |
| 2026-04-26 12:09 | 26.21123 | -11.13651 | 32971 ft | 486 kts | 16° |
| 2026-04-26 12:09 | 26.27446 | -11.10994 | 32930 ft | 485 kts | 16° |
| 2026-04-26 12:10 | 26.33757 | -11.08339 | 32922 ft | 484 kts | 16° |
| 2026-04-26 12:10 | 26.40057 | -11.05687 | 32926 ft | 483 kts | 16° |
| 2026-04-26 12:11 | 26.46338 | -11.03041 | 32924 ft | 482 kts | 16° |
| 2026-04-26 12:11 | 26.52610 | -11.00395 | 32926 ft | 482 kts | 16° |
| 2026-04-26 12:12 | 26.58872 | -10.97750 | 32925 ft | 481 kts | 16° |
| 2026-04-26 12:12 | 26.65127 | -10.95105 | 32917 ft | 480 kts | 16° |
| 2026-04-26 12:13 | 26.71378 | -10.92459 | 32922 ft | 480 kts | 16° |
| 2026-04-26 12:13 | 26.77631 | -10.89808 | 32916 ft | 481 kts | 16° |
| 2026-04-26 12:14 | 26.83885 | -10.87153 | 32921 ft | 481 kts | 16° |
| 2026-04-26 12:14 | 26.90107 | -10.84509 | 32920 ft | 481 kts | 17° |
| 2026-04-26 12:15 | 26.96371 | -10.81845 | 32916 ft | 481 kts | 17° |
| 2026-04-26 12:15 | 27.02636 | -10.79178 | 32918 ft | 482 kts | 17° |
| 2026-04-26 12:16 | 27.08898 | -10.76506 | 32918 ft | 482 kts | 17° |
| 2026-04-26 12:16 | 27.15169 | -10.73828 | 32916 ft | 482 kts | 17° |
| 2026-04-26 12:17 | 27.21424 | -10.71154 | 32919 ft | 481 kts | 17° |
| 2026-04-26 12:17 | 27.27666 | -10.68484 | 32928 ft | 480 kts | 17° |
| 2026-04-26 12:18 | 27.33899 | -10.65812 | 32930 ft | 479 kts | 17° |
| 2026-04-26 12:18 | 27.40131 | -10.63137 | 32927 ft | 479 kts | 17° |
| 2026-04-26 12:19 | 27.46353 | -10.60464 | 32921 ft | 478 kts | 17° |
| 2026-04-26 12:19 | 27.52560 | -10.57795 | 32929 ft | 478 kts | 17° |
| 2026-04-26 12:20 | 27.58771 | -10.55121 | 32924 ft | 477 kts | 17° |
| 2026-04-26 12:20 | 27.64972 | -10.52447 | 32924 ft | 477 kts | 17° |
| 2026-04-26 12:21 | 27.71169 | -10.49812 | 32928 ft | 476 kts | 16° |
| 2026-04-26 12:21 | 27.77384 | -10.47241 | 32918 ft | 475 kts | 16° |
| 2026-04-26 12:22 | 27.83589 | -10.44672 | 32920 ft | 475 kts | 16° |
| 2026-04-26 12:22 | 27.89785 | -10.42095 | 32915 ft | 474 kts | 16° |
| 2026-04-26 12:23 | 27.95933 | -10.39530 | 32919 ft | 474 kts | 16° |
| 2026-04-26 12:23 | 28.02123 | -10.36943 | 32922 ft | 474 kts | 17° |
| 2026-04-26 12:24 | 28.08299 | -10.34357 | 32918 ft | 473 kts | 17° |
| 2026-04-26 12:24 | 28.14468 | -10.31772 | 32917 ft | 473 kts | 17° |
| 2026-04-26 12:25 | 28.23718 | -10.27891 | 32917 ft | 472 kts | 17° |
| 2026-04-26 12:25 | 28.29876 | -10.25303 | 32914 ft | 472 kts | 17° |
| 2026-04-26 12:26 | 28.36039 | -10.22709 | 32919 ft | 472 kts | 17° |
| 2026-04-26 12:26 | 28.42204 | -10.20112 | 32922 ft | 472 kts | 17° |
| 2026-04-26 12:27 | 28.48362 | -10.17515 | 32915 ft | 472 kts | 17° |
| 2026-04-26 12:27 | 28.54518 | -10.14915 | 32917 ft | 472 kts | 17° |
| 2026-04-26 12:28 | 28.60647 | -10.12322 | 32920 ft | 473 kts | 17° |
| 2026-04-26 12:28 | 28.66815 | -10.09712 | 32913 ft | 473 kts | 17° |
| 2026-04-26 12:29 | 28.72974 | -10.07100 | 32919 ft | 472 kts | 17° |
| 2026-04-26 12:30 | 28.82211 | -10.03177 | 32919 ft | 474 kts | 17° |
| 2026-04-26 12:30 | 28.88443 | -10.00529 | 33094 ft | 481 kts | 17° |
| 2026-04-26 12:31 | 28.94712 | -9.97855 | 33594 ft | 479 kts | 17° |
| 2026-04-26 12:31 | 28.97828 | -9.96527 | 33855 ft | 478 kts | 17° |
| 2026-04-26 12:31 | 29.00942 | -9.95199 | 34061 ft | 478 kts | 17° |
| 2026-04-26 12:31 | 29.04053 | -9.93868 | 34276 ft | 477 kts | 17° |
| 2026-04-26 12:32 | 29.07161 | -9.92535 | 34515 ft | 476 kts | 17° |
| 2026-04-26 12:32 | 29.10261 | -9.91203 | 34719 ft | 476 kts | 17° |
| 2026-04-26 12:32 | 29.16458 | -9.88540 | 34897 ft | 478 kts | 17° |
| 2026-04-26 12:33 | 29.19581 | -9.87199 | 34907 ft | 478 kts | 17° |
| 2026-04-26 12:33 | 29.25783 | -9.84526 | 34907 ft | 475 kts | 17° |
| 2026-04-26 12:34 | 29.31954 | -9.81863 | 34905 ft | 472 kts | 17° |
| 2026-04-26 12:34 | 29.38091 | -9.79212 | 34912 ft | 470 kts | 17° |
| 2026-04-26 12:35 | 29.44211 | -9.76568 | 34899 ft | 470 kts | 17° |
| 2026-04-26 12:35 | 29.50279 | -9.73942 | 34910 ft | 469 kts | 17° |
| 2026-04-26 12:36 | 29.56381 | -9.71296 | 34903 ft | 469 kts | 17° |
| 2026-04-26 12:36 | 29.62486 | -9.68647 | 34902 ft | 470 kts | 17° |
| 2026-04-26 12:37 | 29.68605 | -9.65988 | 34899 ft | 471 kts | 17° |
| 2026-04-26 12:37 | 29.74738 | -9.63318 | 34900 ft | 472 kts | 17° |
| 2026-04-26 12:38 | 29.80880 | -9.60640 | 34901 ft | 473 kts | 17° |
| 2026-04-26 12:38 | 29.87036 | -9.57952 | 34892 ft | 474 kts | 17° |
| 2026-04-26 12:39 | 29.93204 | -9.55257 | 34891 ft | 474 kts | 17° |
| 2026-04-26 12:39 | 29.99374 | -9.52578 | 34894 ft | 474 kts | 17° |
| 2026-04-26 12:40 | 30.05562 | -9.49899 | 34892 ft | 475 kts | 17° |
| 2026-04-26 12:40 | 30.11743 | -9.47216 | 34883 ft | 474 kts | 17° |
| 2026-04-26 12:41 | 30.17907 | -9.44533 | 34887 ft | 473 kts | 18° |
| 2026-04-26 12:41 | 30.24060 | -9.41852 | 34887 ft | 472 kts | 18° |
| 2026-04-26 12:42 | 30.30254 | -9.39470 | 34876 ft | 465 kts | 6° |
| 2026-04-26 12:42 | 30.33412 | -9.39146 | 34898 ft | 459 kts | 355° |
| 2026-04-26 12:42 | 30.36613 | -9.39420 | 34883 ft | 453 kts | 345° |
| 2026-04-26 12:43 | 30.42659 | -9.41114 | 34888 ft | 450 kts | 341° |
| 2026-04-26 12:43 | 30.48727 | -9.42904 | 34888 ft | 450 kts | 342° |
| 2026-04-26 12:44 | 30.54812 | -9.44637 | 34892 ft | 451 kts | 342° |
| 2026-04-26 12:44 | 30.60920 | -9.46354 | 34891 ft | 452 kts | 342° |
| 2026-04-26 12:45 | 30.66050 | -9.47797 | 34886 ft | 453 kts | 342° |
| 2026-04-26 12:45 | 30.72183 | -9.49525 | 34895 ft | 454 kts | 343° |
| 2026-04-26 12:46 | 30.78293 | -9.51252 | 34884 ft | 455 kts | 343° |
| 2026-04-26 12:46 | 30.84449 | -9.52999 | 34900 ft | 455 kts | 343° |
| 2026-04-26 12:47 | 30.90614 | -9.54749 | 34896 ft | 456 kts | 343° |
| 2026-04-26 12:47 | 30.96783 | -9.56503 | 34901 ft | 456 kts | 343° |
| 2026-04-26 12:48 | 31.02951 | -9.58259 | 34895 ft | 456 kts | 343° |
| 2026-04-26 12:48 | 31.09120 | -9.60004 | 34905 ft | 456 kts | 344° |
| 2026-04-26 12:49 | 31.15291 | -9.61729 | 34907 ft | 456 kts | 344° |
| 2026-04-26 12:49 | 31.21468 | -9.63457 | 34909 ft | 457 kts | 344° |
| 2026-04-26 12:50 | 31.27648 | -9.65193 | 34907 ft | 457 kts | 344° |
| 2026-04-26 12:50 | 31.33824 | -9.66931 | 34908 ft | 457 kts | 345° |
| 2026-04-26 12:51 | 31.40056 | -9.68089 | 34910 ft | 459 kts | 359° |
| 2026-04-26 12:51 | 31.46377 | -9.67083 | 34920 ft | 460 kts | 13° |
| 2026-04-26 12:52 | 31.52588 | -9.65235 | 34908 ft | 461 kts | 14° |
| 2026-04-26 12:52 | 31.58800 | -9.63375 | 34916 ft | 461 kts | 14° |
| 2026-04-26 12:53 | 31.65029 | -9.61559 | 34915 ft | 461 kts | 13° |
| 2026-04-26 12:53 | 31.71258 | -9.59767 | 34921 ft | 461 kts | 13° |
| 2026-04-26 12:54 | 31.77492 | -9.57975 | 34916 ft | 461 kts | 13° |
| 2026-04-26 12:54 | 31.83728 | -9.56178 | 34916 ft | 461 kts | 13° |
| 2026-04-26 12:55 | 31.89964 | -9.54377 | 34916 ft | 461 kts | 13° |
| 2026-04-26 12:55 | 31.96188 | -9.52577 | 34915 ft | 461 kts | 13° |
| 2026-04-26 12:56 | 32.02413 | -9.50774 | 34920 ft | 460 kts | 14° |
| 2026-04-26 12:56 | 32.08616 | -9.48973 | 34915 ft | 459 kts | 14° |
| 2026-04-26 12:57 | 32.14820 | -9.47173 | 34917 ft | 459 kts | 14° |
| 2026-04-26 12:57 | 32.20975 | -9.45385 | 34914 ft | 458 kts | 14° |
| 2026-04-26 12:58 | 32.30244 | -9.42685 | 34918 ft | 457 kts | 14° |
| 2026-04-26 12:58 | 32.36427 | -9.40883 | 34919 ft | 457 kts | 14° |
| 2026-04-26 12:59 | 32.42609 | -9.39075 | 34915 ft | 457 kts | 14° |
| 2026-04-26 12:59 | 32.48786 | -9.37267 | 34920 ft | 458 kts | 14° |
| 2026-04-26 13:00 | 32.54973 | -9.35455 | 34921 ft | 458 kts | 14° |
| 2026-04-26 13:00 | 32.61158 | -9.33640 | 34921 ft | 458 kts | 14° |
| 2026-04-26 13:01 | 32.67345 | -9.31822 | 34923 ft | 458 kts | 14° |
| 2026-04-26 13:01 | 32.73527 | -9.30002 | 34925 ft | 458 kts | 14° |
| 2026-04-26 13:02 | 32.79714 | -9.28178 | 34927 ft | 458 kts | 14° |
| 2026-04-26 13:02 | 32.85900 | -9.26353 | 34925 ft | 458 kts | 14° |
| 2026-04-26 13:03 | 32.92083 | -9.24524 | 34928 ft | 458 kts | 14° |
| 2026-04-26 13:03 | 32.98263 | -9.22695 | 34924 ft | 458 kts | 14° |
| 2026-04-26 13:04 | 33.04440 | -9.20865 | 34926 ft | 457 kts | 14° |
| 2026-04-26 13:04 | 33.10611 | -9.19032 | 34926 ft | 457 kts | 14° |
| 2026-04-26 13:05 | 33.16789 | -9.17196 | 34924 ft | 457 kts | 14° |
| 2026-04-26 13:05 | 33.22911 | -9.15384 | 34927 ft | 456 kts | 14° |
| 2026-04-26 13:06 | 33.29077 | -9.13561 | 34928 ft | 456 kts | 14° |
| 2026-04-26 13:06 | 33.35236 | -9.11735 | 34940 ft | 455 kts | 14° |
| 2026-04-26 13:07 | 33.41386 | -9.09908 | 34935 ft | 455 kts | 14° |
| 2026-04-26 13:07 | 33.47529 | -9.08081 | 34939 ft | 455 kts | 14° |
| 2026-04-26 13:08 | 33.53671 | -9.06251 | 34934 ft | 455 kts | 14° |
| 2026-04-26 13:08 | 33.59810 | -9.04418 | 34938 ft | 454 kts | 14° |
| 2026-04-26 13:09 | 33.65939 | -9.02587 | 34934 ft | 454 kts | 14° |
| 2026-04-26 13:09 | 33.72073 | -9.00751 | 34934 ft | 454 kts | 14° |
| 2026-04-26 13:10 | 33.78206 | -8.98915 | 34947 ft | 454 kts | 14° |
| 2026-04-26 13:10 | 33.84331 | -8.97077 | 34942 ft | 454 kts | 14° |
| 2026-04-26 13:11 | 33.90428 | -8.95245 | 34945 ft | 454 kts | 14° |
| 2026-04-26 13:11 | 33.96559 | -8.93399 | 34946 ft | 454 kts | 14° |
| 2026-04-26 13:12 | 34.02692 | -8.91549 | 34946 ft | 455 kts | 14° |
| 2026-04-26 13:12 | 34.08829 | -8.89697 | 34950 ft | 454 kts | 14° |
| 2026-04-26 13:13 | 34.14962 | -8.87843 | 34951 ft | 454 kts | 14° |
| 2026-04-26 13:13 | 34.21075 | -8.85991 | 34954 ft | 453 kts | 14° |
| 2026-04-26 13:14 | 34.27189 | -8.84137 | 34954 ft | 452 kts | 14° |
| 2026-04-26 13:14 | 34.33287 | -8.82284 | 34953 ft | 452 kts | 14° |
| 2026-04-26 13:15 | 34.39379 | -8.80430 | 34956 ft | 451 kts | 14° |
| 2026-04-26 13:15 | 34.44435 | -8.78889 | 34964 ft | 451 kts | 14° |
| 2026-04-26 13:16 | 34.51533 | -8.76720 | 34964 ft | 450 kts | 14° |
| 2026-04-26 13:16 | 34.57601 | -8.74859 | 34963 ft | 450 kts | 14° |
| 2026-04-26 13:17 | 34.66658 | -8.72073 | 34965 ft | 449 kts | 14° |
| 2026-04-26 13:18 | 34.75755 | -8.69274 | 34952 ft | 449 kts | 14° |
| 2026-04-26 13:19 | 34.84844 | -8.66468 | 34954 ft | 449 kts | 14° |
| 2026-04-26 13:19 | 34.90903 | -8.64594 | 34951 ft | 449 kts | 14° |
| 2026-04-26 13:20 | 34.96958 | -8.62717 | 34962 ft | 449 kts | 13° |
| 2026-04-26 13:20 | 35.03008 | -8.60841 | 34962 ft | 449 kts | 13° |
| 2026-04-26 13:21 | 35.09057 | -8.58963 | 34963 ft | 448 kts | 13° |
| 2026-04-26 13:21 | 35.15095 | -8.57085 | 34974 ft | 448 kts | 13° |
| 2026-04-26 13:22 | 35.21130 | -8.55203 | 34972 ft | 447 kts | 13° |
| 2026-04-26 13:22 | 35.27160 | -8.53320 | 34980 ft | 447 kts | 13° |
| 2026-04-26 13:23 | 35.33185 | -8.51437 | 34985 ft | 446 kts | 13° |
| 2026-04-26 13:23 | 35.39202 | -8.49553 | 34986 ft | 446 kts | 13° |
| 2026-04-26 13:24 | 35.45206 | -8.47670 | 34997 ft | 445 kts | 13° |
| 2026-04-26 13:24 | 35.51208 | -8.45785 | 35000 ft | 445 kts | 13° |
| 2026-04-26 13:25 | 35.57200 | -8.43901 | 35001 ft | 445 kts | 13° |
| 2026-04-26 13:25 | 35.63187 | -8.42016 | 34996 ft | 444 kts | 13° |
| 2026-04-26 13:26 | 35.69133 | -8.40138 | 35002 ft | 444 kts | 13° |
| 2026-04-26 13:26 | 35.75108 | -8.38249 | 35006 ft | 443 kts | 13° |
| 2026-04-26 13:27 | 35.81124 | -8.36346 | 35009 ft | 443 kts | 13° |
| 2026-04-26 13:27 | 35.87048 | -8.34468 | 35018 ft | 442 kts | 13° |
| 2026-04-26 13:28 | 35.93006 | -8.32576 | 35017 ft | 442 kts | 13° |
| 2026-04-26 13:28 | 35.98959 | -8.30682 | 35023 ft | 441 kts | 13° |
| 2026-04-26 13:29 | 36.04900 | -8.28789 | 35030 ft | 441 kts | 13° |
| 2026-04-26 13:29 | 36.10829 | -8.26894 | 35027 ft | 440 kts | 13° |
| 2026-04-26 13:30 | 36.16768 | -8.24994 | 35028 ft | 440 kts | 13° |
| 2026-04-26 13:30 | 36.22692 | -8.23095 | 35037 ft | 440 kts | 13° |
| 2026-04-26 13:31 | 36.28619 | -8.21193 | 35034 ft | 440 kts | 13° |
| 2026-04-26 13:31 | 36.34554 | -8.19284 | 35039 ft | 441 kts | 13° |
| 2026-04-26 13:32 | 36.40489 | -8.17372 | 35037 ft | 441 kts | 13° |
| 2026-04-26 13:32 | 36.46435 | -8.15454 | 35039 ft | 441 kts | 13° |
| 2026-04-26 13:33 | 36.52382 | -8.13534 | 35040 ft | 442 kts | 13° |
| 2026-04-26 13:33 | 36.57322 | -8.11932 | 35048 ft | 442 kts | 13° |
| 2026-04-26 13:34 | 36.63268 | -8.09995 | 35046 ft | 442 kts | 13° |
| 2026-04-26 13:34 | 36.69210 | -8.08056 | 35046 ft | 442 kts | 13° |
| 2026-04-26 13:35 | 36.75156 | -8.06113 | 35047 ft | 442 kts | 13° |
| 2026-04-26 13:35 | 36.81100 | -8.04167 | 35044 ft | 442 kts | 13° |
| 2026-04-26 13:36 | 36.87052 | -8.02217 | 35048 ft | 442 kts | 13° |
| 2026-04-26 13:36 | 36.93007 | -8.00263 | 35043 ft | 442 kts | 13° |
| 2026-04-26 13:37 | 36.98949 | -7.98308 | 35055 ft | 441 kts | 13° |
| 2026-04-26 13:37 | 37.04888 | -7.96350 | 35047 ft | 441 kts | 13° |
| 2026-04-26 13:38 | 37.10809 | -7.94389 | 35044 ft | 440 kts | 13° |
| 2026-04-26 13:38 | 37.16725 | -7.92424 | 35043 ft | 439 kts | 13° |
| 2026-04-26 13:39 | 37.22627 | -7.90461 | 35044 ft | 438 kts | 13° |
| 2026-04-26 13:39 | 37.28511 | -7.88499 | 35048 ft | 437 kts | 13° |
| 2026-04-26 13:40 | 37.34390 | -7.86538 | 35045 ft | 437 kts | 13° |
| 2026-04-26 13:40 | 37.40255 | -7.84579 | 35047 ft | 436 kts | 13° |
| 2026-04-26 13:41 | 37.46133 | -7.82612 | 35049 ft | 436 kts | 13° |
| 2026-04-26 13:41 | 37.51954 | -7.80660 | 35044 ft | 436 kts | 13° |
| 2026-04-26 13:42 | 37.57850 | -7.78679 | 35046 ft | 436 kts | 13° |
| 2026-04-26 13:42 | 37.63706 | -7.76711 | 35050 ft | 436 kts | 13° |
| 2026-04-26 13:43 | 37.69567 | -7.74737 | 35047 ft | 436 kts | 13° |
| 2026-04-26 13:43 | 37.75393 | -7.72771 | 35048 ft | 437 kts | 13° |
| 2026-04-26 13:44 | 37.81269 | -7.70785 | 35044 ft | 437 kts | 13° |
| 2026-04-26 13:44 | 37.87151 | -7.68793 | 35046 ft | 438 kts | 13° |
| 2026-04-26 13:45 | 37.93039 | -7.66797 | 35046 ft | 438 kts | 13° |
| 2026-04-26 13:45 | 37.98933 | -7.64796 | 35046 ft | 439 kts | 13° |
| 2026-04-26 13:46 | 38.04830 | -7.62789 | 35050 ft | 439 kts | 13° |
| 2026-04-26 13:46 | 38.10731 | -7.60777 | 35044 ft | 439 kts | 13° |
| 2026-04-26 13:47 | 38.16626 | -7.58768 | 35044 ft | 439 kts | 13° |
| 2026-04-26 13:47 | 38.22522 | -7.56757 | 35045 ft | 438 kts | 13° |
| 2026-04-26 13:48 | 38.28411 | -7.54743 | 35048 ft | 438 kts | 13° |
| 2026-04-26 13:48 | 38.34290 | -7.52730 | 35046 ft | 438 kts | 13° |
| 2026-04-26 13:49 | 38.40168 | -7.50712 | 35049 ft | 438 kts | 13° |
| 2026-04-26 13:49 | 38.46044 | -7.48691 | 35045 ft | 437 kts | 13° |
| 2026-04-26 13:50 | 38.51909 | -7.46672 | 35046 ft | 436 kts | 14° |
| 2026-04-26 13:50 | 38.57772 | -7.44653 | 35041 ft | 436 kts | 14° |
| 2026-04-26 13:51 | 38.63624 | -7.42629 | 35049 ft | 436 kts | 14° |
| 2026-04-26 13:51 | 38.69477 | -7.40602 | 35045 ft | 436 kts | 14° |
| 2026-04-26 13:52 | 38.75339 | -7.38569 | 35044 ft | 436 kts | 14° |
| 2026-04-26 13:52 | 38.81157 | -7.36548 | 35049 ft | 436 kts | 14° |
| 2026-04-26 13:53 | 38.87018 | -7.34509 | 35055 ft | 437 kts | 14° |
| 2026-04-26 13:53 | 38.92889 | -7.32464 | 35054 ft | 437 kts | 14° |
| 2026-04-26 13:54 | 38.98756 | -7.30415 | 35056 ft | 437 kts | 14° |
| 2026-04-26 13:54 | 39.04634 | -7.28359 | 35052 ft | 437 kts | 14° |
| 2026-04-26 13:55 | 39.12449 | -7.25621 | 35055 ft | 437 kts | 14° |
| 2026-04-26 13:56 | 39.22234 | -7.22088 | 35052 ft | 438 kts | 19° |
| 2026-04-26 13:56 | 39.27729 | -7.18661 | 35053 ft | 439 kts | 26° |
| 2026-04-26 13:57 | 39.33135 | -7.14970 | 35056 ft | 440 kts | 26° |
| 2026-04-26 13:57 | 39.38517 | -7.11329 | 35057 ft | 440 kts | 26° |
| 2026-04-26 13:58 | 39.43949 | -7.07702 | 35062 ft | 439 kts | 26° |
| 2026-04-26 13:58 | 39.49381 | -7.04089 | 35060 ft | 439 kts | 26° |
| 2026-04-26 13:59 | 39.54811 | -7.00474 | 35062 ft | 439 kts | 26° |
| 2026-04-26 13:59 | 39.60238 | -6.96854 | 35061 ft | 439 kts | 26° |
| 2026-04-26 14:00 | 39.71085 | -6.89597 | 35070 ft | 439 kts | 26° |
| 2026-04-26 14:01 | 39.76506 | -6.85960 | 35073 ft | 439 kts | 26° |
| 2026-04-26 14:01 | 39.81939 | -6.82308 | 35077 ft | 439 kts | 26° |
| 2026-04-26 14:02 | 39.87367 | -6.78653 | 35079 ft | 439 kts | 26° |
| 2026-04-26 14:02 | 39.92789 | -6.74995 | 35080 ft | 439 kts | 26° |
| 2026-04-26 14:03 | 39.98214 | -6.71328 | 35091 ft | 439 kts | 26° |
| 2026-04-26 14:03 | 40.03628 | -6.67662 | 35081 ft | 439 kts | 26° |
| 2026-04-26 14:04 | 40.09046 | -6.63989 | 35102 ft | 438 kts | 27° |
| 2026-04-26 14:04 | 40.14461 | -6.60311 | 35101 ft | 439 kts | 27° |
| 2026-04-26 14:05 | 40.19873 | -6.56624 | 35103 ft | 439 kts | 27° |
| 2026-04-26 14:05 | 40.25282 | -6.52936 | 35111 ft | 438 kts | 27° |
| 2026-04-26 14:06 | 40.30681 | -6.49247 | 35109 ft | 438 kts | 27° |
| 2026-04-26 14:06 | 40.36082 | -6.45549 | 35120 ft | 438 kts | 27° |
| 2026-04-26 14:07 | 40.41477 | -6.41849 | 35134 ft | 437 kts | 27° |
| 2026-04-26 14:07 | 40.46876 | -6.38142 | 35128 ft | 438 kts | 27° |
| 2026-04-26 14:08 | 40.52277 | -6.34425 | 35133 ft | 438 kts | 27° |
| 2026-04-26 14:08 | 40.57683 | -6.30700 | 35134 ft | 439 kts | 27° |
| 2026-04-26 14:09 | 40.63090 | -6.26970 | 35140 ft | 439 kts | 27° |
| 2026-04-26 14:09 | 40.68508 | -6.23232 | 35140 ft | 440 kts | 27° |
| 2026-04-26 14:10 | 40.73922 | -6.19489 | 35137 ft | 440 kts | 27° |
| 2026-04-26 14:10 | 40.79303 | -6.15762 | 35148 ft | 439 kts | 27° |
| 2026-04-26 14:11 | 40.87411 | -6.10133 | 35146 ft | 439 kts | 27° |
| 2026-04-26 14:11 | 40.92810 | -6.06376 | 35148 ft | 438 kts | 27° |
| 2026-04-26 14:12 | 40.98202 | -6.02616 | 35151 ft | 438 kts | 27° |
| 2026-04-26 14:12 | 41.03582 | -5.98858 | 35158 ft | 437 kts | 27° |
| 2026-04-26 14:13 | 41.11646 | -5.93212 | 35156 ft | 436 kts | 27° |
| 2026-04-26 14:14 | 41.17009 | -5.89448 | 35155 ft | 436 kts | 27° |
| 2026-04-26 14:14 | 41.22357 | -5.85686 | 35154 ft | 434 kts | 27° |
| 2026-04-26 14:15 | 41.27692 | -5.81928 | 35159 ft | 434 kts | 27° |
| 2026-04-26 14:15 | 41.33020 | -5.78168 | 35155 ft | 433 kts | 27° |
| 2026-04-26 14:16 | 41.38349 | -5.74400 | 35158 ft | 433 kts | 27° |
| 2026-04-26 14:16 | 41.43672 | -5.70629 | 35158 ft | 433 kts | 27° |
| 2026-04-26 14:17 | 41.48991 | -5.66853 | 35157 ft | 433 kts | 27° |
| 2026-04-26 14:17 | 41.54339 | -5.63130 | 35155 ft | 433 kts | 25° |
| 2026-04-26 14:18 | 41.59872 | -5.59948 | 35152 ft | 433 kts | 22° |
| 2026-04-26 14:18 | 41.65461 | -5.56909 | 35147 ft | 434 kts | 22° |
| 2026-04-26 14:19 | 41.71003 | -5.53839 | 35148 ft | 434 kts | 22° |
| 2026-04-26 14:19 | 41.76569 | -5.50709 | 35150 ft | 434 kts | 22° |
| 2026-04-26 14:20 | 41.82137 | -5.47552 | 35158 ft | 434 kts | 22° |
| 2026-04-26 14:20 | 41.87706 | -5.44386 | 35156 ft | 434 kts | 22° |
| 2026-04-26 14:21 | 41.93272 | -5.41217 | 35158 ft | 434 kts | 22° |
| 2026-04-26 14:21 | 41.97933 | -5.38559 | 35156 ft | 434 kts | 22° |
| 2026-04-26 14:22 | 42.03457 | -5.35404 | 35155 ft | 435 kts | 22° |
| 2026-04-26 14:22 | 42.09024 | -5.32218 | 35155 ft | 435 kts | 22° |
| 2026-04-26 14:23 | 42.14590 | -5.29026 | 35159 ft | 435 kts | 22° |
| 2026-04-26 14:23 | 42.20157 | -5.25827 | 35156 ft | 436 kts | 22° |
| 2026-04-26 14:24 | 42.25733 | -5.22617 | 35158 ft | 436 kts | 22° |
| 2026-04-26 14:24 | 42.31316 | -5.19399 | 35156 ft | 436 kts | 22° |
| 2026-04-26 14:25 | 42.36896 | -5.16175 | 35159 ft | 436 kts | 22° |
| 2026-04-26 14:25 | 42.42473 | -5.12945 | 35156 ft | 436 kts | 22° |
| 2026-04-26 14:26 | 42.48049 | -5.09711 | 35160 ft | 436 kts | 22° |
| 2026-04-26 14:26 | 42.53626 | -5.06468 | 35156 ft | 436 kts | 22° |
| 2026-04-26 14:27 | 42.59204 | -5.03219 | 35158 ft | 436 kts | 22° |
| 2026-04-26 14:27 | 42.64742 | -4.99987 | 35166 ft | 436 kts | 22° |
| 2026-04-26 14:28 | 42.70352 | -4.96708 | 35169 ft | 436 kts | 22° |
| 2026-04-26 14:28 | 42.75892 | -4.93464 | 35164 ft | 437 kts | 23° |
| 2026-04-26 14:29 | 42.81477 | -4.90185 | 35166 ft | 437 kts | 22° |
| 2026-04-26 14:29 | 42.87055 | -4.86908 | 35175 ft | 437 kts | 23° |
| 2026-04-26 14:30 | 42.92632 | -4.83623 | 35177 ft | 437 kts | 23° |
| 2026-04-26 14:30 | 42.98209 | -4.80332 | 35175 ft | 437 kts | 23° |
| 2026-04-26 14:31 | 43.03795 | -4.77028 | 35175 ft | 437 kts | 22° |
| 2026-04-26 14:31 | 43.09376 | -4.73719 | 35175 ft | 438 kts | 22° |
| 2026-04-26 14:32 | 43.14969 | -4.70398 | 35177 ft | 438 kts | 23° |
| 2026-04-26 14:32 | 43.20560 | -4.67071 | 35174 ft | 438 kts | 23° |
| 2026-04-26 14:33 | 43.26147 | -4.63739 | 35184 ft | 438 kts | 23° |
| 2026-04-26 14:33 | 43.31731 | -4.60404 | 35182 ft | 438 kts | 23° |
| 2026-04-26 14:34 | 43.37277 | -4.57083 | 35184 ft | 437 kts | 22° |
| 2026-04-26 14:34 | 43.42854 | -4.53736 | 35185 ft | 437 kts | 22° |
| 2026-04-26 14:35 | 43.48433 | -4.50382 | 35184 ft | 437 kts | 22° |
| 2026-04-26 14:35 | 43.54010 | -4.47027 | 35184 ft | 437 kts | 23° |
| 2026-04-26 14:36 | 43.59584 | -4.43666 | 35185 ft | 437 kts | 23° |
| 2026-04-26 14:36 | 43.65155 | -4.40301 | 35195 ft | 437 kts | 23° |
| 2026-04-26 14:37 | 43.70724 | -4.36929 | 35183 ft | 437 kts | 23° |
| 2026-04-26 14:37 | 43.76301 | -4.33545 | 35185 ft | 437 kts | 23° |
| 2026-04-26 14:38 | 43.81872 | -4.30156 | 35185 ft | 437 kts | 23° |
| 2026-04-26 14:38 | 43.87433 | -4.26767 | 35193 ft | 437 kts | 23° |
| 2026-04-26 14:39 | 43.93002 | -4.23368 | 35193 ft | 437 kts | 23° |
| 2026-04-26 14:39 | 43.98562 | -4.19967 | 35196 ft | 437 kts | 23° |
| 2026-04-26 14:40 | 44.04125 | -4.16555 | 35195 ft | 437 kts | 23° |
| 2026-04-26 14:40 | 44.09692 | -4.13136 | 35192 ft | 437 kts | 23° |
| 2026-04-26 14:41 | 44.15267 | -4.09705 | 35273 ft | 441 kts | 23° |
| 2026-04-26 14:41 | 44.18043 | -4.07994 | 35438 ft | 442 kts | 23° |
| 2026-04-26 14:41 | 44.20849 | -4.06261 | 35710 ft | 440 kts | 23° |
| 2026-04-26 14:41 | 44.23640 | -4.04535 | 35972 ft | 439 kts | 23° |
| 2026-04-26 14:42 | 44.26436 | -4.02806 | 36154 ft | 439 kts | 23° |
| 2026-04-26 14:42 | 44.32053 | -3.99328 | 36190 ft | 444 kts | 23° |
| 2026-04-26 14:43 | 44.37517 | -3.95349 | 36196 ft | 441 kts | 28° |
| 2026-04-26 14:43 | 44.42818 | -3.91074 | 36184 ft | 439 kts | 29° |
| 2026-04-26 14:44 | 44.48091 | -3.86812 | 36193 ft | 437 kts | 28° |
| 2026-04-26 14:44 | 44.53356 | -3.82598 | 36191 ft | 435 kts | 28° |
| 2026-04-26 14:45 | 44.58617 | -3.78402 | 36196 ft | 435 kts | 28° |
| 2026-04-26 14:45 | 44.63892 | -3.74188 | 36186 ft | 437 kts | 28° |
| 2026-04-26 14:46 | 44.69183 | -3.69960 | 36190 ft | 439 kts | 28° |
| 2026-04-26 14:46 | 44.74500 | -3.65702 | 36186 ft | 441 kts | 28° |
| 2026-04-26 14:47 | 44.79834 | -3.61418 | 36187 ft | 443 kts | 28° |
| 2026-04-26 14:47 | 44.85194 | -3.57104 | 36188 ft | 444 kts | 28° |
| 2026-04-26 14:48 | 44.90570 | -3.52767 | 36183 ft | 446 kts | 28° |
| 2026-04-26 14:48 | 44.95961 | -3.48407 | 36186 ft | 447 kts | 28° |
| 2026-04-26 14:49 | 45.01360 | -3.44031 | 36185 ft | 447 kts | 28° |
| 2026-04-26 14:49 | 45.06746 | -3.39658 | 36180 ft | 443 kts | 28° |
| 2026-04-26 14:49 | 45.09390 | -3.37506 | 36048 ft | 434 kts | 28° |
| 2026-04-26 14:50 | 45.11990 | -3.35387 | 35748 ft | 427 kts | 28° |
| 2026-04-26 14:50 | 45.14550 | -3.33298 | 35367 ft | 423 kts | 28° |
| 2026-04-26 14:50 | 45.17088 | -3.31227 | 34997 ft | 419 kts | 28° |
| 2026-04-26 14:50 | 45.19606 | -3.29170 | 34622 ft | 416 kts | 28° |
| 2026-04-26 14:51 | 45.22104 | -3.27128 | 34244 ft | 413 kts | 28° |
| 2026-04-26 14:51 | 45.24584 | -3.25098 | 33865 ft | 410 kts | 28° |
| 2026-04-26 14:51 | 45.27047 | -3.23080 | 33486 ft | 407 kts | 28° |
| 2026-04-26 14:51 | 45.29492 | -3.21075 | 33112 ft | 405 kts | 28° |
| 2026-04-26 14:52 | 45.31920 | -3.19083 | 32739 ft | 402 kts | 28° |
| 2026-04-26 14:52 | 45.34333 | -3.17100 | 32371 ft | 399 kts | 28° |
| 2026-04-26 14:52 | 45.36729 | -3.15129 | 32002 ft | 397 kts | 28° |
| 2026-04-26 14:52 | 45.39107 | -3.13171 | 31637 ft | 394 kts | 28° |
| 2026-04-26 14:53 | 45.41476 | -3.11220 | 31273 ft | 392 kts | 28° |
| 2026-04-26 14:53 | 45.43827 | -3.09280 | 30916 ft | 389 kts | 28° |
| 2026-04-26 14:53 | 45.46167 | -3.07348 | 30562 ft | 387 kts | 28° |
| 2026-04-26 14:53 | 45.48485 | -3.05431 | 30214 ft | 385 kts | 28° |
| 2026-04-26 14:54 | 45.50794 | -3.03519 | 29856 ft | 382 kts | 28° |
| 2026-04-26 14:54 | 45.53085 | -3.01622 | 29499 ft | 380 kts | 28° |
| 2026-04-26 14:54 | 45.55334 | -2.99758 | 29134 ft | 377 kts | 28° |
| 2026-04-26 14:54 | 45.57593 | -2.97883 | 28767 ft | 375 kts | 28° |
| 2026-04-26 14:55 | 45.59842 | -2.96016 | 28403 ft | 373 kts | 29° |
| 2026-04-26 14:55 | 45.62077 | -2.94157 | 28042 ft | 370 kts | 29° |
| 2026-04-26 14:55 | 45.64296 | -2.92311 | 27682 ft | 368 kts | 29° |
| 2026-04-26 14:55 | 45.66502 | -2.90474 | 27330 ft | 366 kts | 29° |
| 2026-04-26 14:56 | 45.68697 | -2.88654 | 26994 ft | 363 kts | 29° |
| 2026-04-26 14:56 | 45.70870 | -2.86841 | 26625 ft | 361 kts | 29° |
| 2026-04-26 14:56 | 45.73036 | -2.85032 | 26269 ft | 359 kts | 29° |
| 2026-04-26 14:56 | 45.75188 | -2.83231 | 25917 ft | 357 kts | 29° |
| 2026-04-26 14:57 | 45.77325 | -2.81440 | 25569 ft | 355 kts | 29° |
| 2026-04-26 14:57 | 45.79447 | -2.79660 | 25225 ft | 353 kts | 29° |
| 2026-04-26 14:57 | 45.81561 | -2.77887 | 24879 ft | 351 kts | 29° |
| 2026-04-26 14:57 | 45.83655 | -2.76130 | 24539 ft | 348 kts | 29° |
| 2026-04-26 14:58 | 45.85744 | -2.74377 | 24196 ft | 346 kts | 29° |
| 2026-04-26 14:58 | 45.87816 | -2.72636 | 23841 ft | 345 kts | 29° |
| 2026-04-26 14:58 | 45.89879 | -2.70900 | 23513 ft | 342 kts | 29° |
| 2026-04-26 14:58 | 45.91926 | -2.69175 | 23190 ft | 340 kts | 29° |
| 2026-04-26 14:59 | 45.93961 | -2.67461 | 22860 ft | 338 kts | 29° |
| 2026-04-26 14:59 | 45.95982 | -2.65753 | 22531 ft | 336 kts | 29° |
| 2026-04-26 14:59 | 45.97986 | -2.64061 | 22214 ft | 333 kts | 29° |
| 2026-04-26 14:59 | 45.99310 | -2.62944 | 22004 ft | 332 kts | 29° |
| 2026-04-26 15:00 | 46.01961 | -2.60704 | 21577 ft | 329 kts | 29° |
| 2026-04-26 15:00 | 46.03926 | -2.59041 | 21258 ft | 327 kts | 29° |
| 2026-04-26 15:00 | 46.05879 | -2.57388 | 20951 ft | 325 kts | 29° |
| 2026-04-26 15:00 | 46.07823 | -2.55739 | 20628 ft | 323 kts | 29° |
| 2026-04-26 15:01 | 46.09728 | -2.54124 | 20322 ft | 321 kts | 30° |
| 2026-04-26 15:01 | 46.11647 | -2.52495 | 20007 ft | 319 kts | 30° |
| 2026-04-26 15:01 | 46.13559 | -2.50871 | 19698 ft | 318 kts | 30° |
| 2026-04-26 15:01 | 46.15454 | -2.49259 | 19387 ft | 316 kts | 30° |
| 2026-04-26 15:02 | 46.17408 | -2.47843 | 19060 ft | 313 kts | 18° |
| 2026-04-26 15:02 | 46.19516 | -2.47159 | 18780 ft | 309 kts | 6° |
| 2026-04-26 15:02 | 46.21647 | -2.46811 | 18486 ft | 307 kts | 5° |
| 2026-04-26 15:02 | 46.23771 | -2.46500 | 18176 ft | 306 kts | 5° |
| 2026-04-26 15:03 | 46.25883 | -2.46188 | 17873 ft | 305 kts | 5° |
| 2026-04-26 15:03 | 46.27986 | -2.45870 | 17557 ft | 304 kts | 5° |
| 2026-04-26 15:03 | 46.30082 | -2.45545 | 17253 ft | 302 kts | 5° |
| 2026-04-26 15:03 | 46.32170 | -2.45216 | 16943 ft | 301 kts | 5° |
| 2026-04-26 15:04 | 46.34250 | -2.44885 | 16649 ft | 300 kts | 5° |
| 2026-04-26 15:04 | 46.36322 | -2.44551 | 16352 ft | 299 kts | 5° |
| 2026-04-26 15:04 | 46.38384 | -2.44218 | 16049 ft | 298 kts | 5° |
| 2026-04-26 15:04 | 46.40436 | -2.43886 | 15750 ft | 296 kts | 5° |
| 2026-04-26 15:05 | 46.42480 | -2.43556 | 15449 ft | 295 kts | 5° |
| 2026-04-26 15:05 | 46.43170 | -2.43435 | 15336 ft | 295 kts | 8° |
| 2026-04-26 15:05 | 46.46399 | -2.41514 | 14441 ft | 308 kts | 27° |
| 2026-04-26 15:05 | 46.48281 | -2.40048 | 14148 ft | 306 kts | 28° |
| 2026-04-26 15:06 | 46.50146 | -2.38600 | 13870 ft | 303 kts | 27° |
| 2026-04-26 15:06 | 46.52004 | -2.37179 | 13546 ft | 302 kts | 27° |
| 2026-04-26 15:06 | 46.53869 | -2.35796 | 13248 ft | 300 kts | 26° |
| 2026-04-26 15:06 | 46.55717 | -2.34417 | 12951 ft | 298 kts | 27° |
| 2026-04-26 15:07 | 46.59379 | -2.31669 | 12350 ft | 294 kts | 27° |
| 2026-04-26 15:07 | 46.61188 | -2.30324 | 12014 ft | 290 kts | 27° |
| 2026-04-26 15:07 | 46.62986 | -2.28990 | 11587 ft | 290 kts | 27° |
| 2026-04-26 15:08 | 46.64751 | -2.27682 | 11196 ft | 287 kts | 27° |
| 2026-04-26 15:08 | 46.66539 | -2.26358 | 10886 ft | 283 kts | 27° |
| 2026-04-26 15:08 | 46.68291 | -2.25060 | 10591 ft | 282 kts | 27° |
| 2026-04-26 15:08 | 46.70015 | -2.23783 | 10322 ft | 280 kts | 27° |
| 2026-04-26 15:09 | 46.71728 | -2.22513 | 10176 ft | 273 kts | 27° |
| 2026-04-26 15:09 | 46.73421 | -2.21255 | 9868 ft | 273 kts | 27° |
| 2026-04-26 15:09 | 46.75109 | -2.20002 | 9605 ft | 271 kts | 27° |
| 2026-04-26 15:09 | 46.76790 | -2.18754 | 9316 ft | 270 kts | 27° |
| 2026-04-26 15:10 | 46.78461 | -2.17513 | 9033 ft | 269 kts | 27° |
| 2026-04-26 15:10 | 46.79026 | -2.17093 | 8936 ft | 269 kts | 27° |
| 2026-04-26 15:10 | 46.81223 | -2.15455 | 8577 ft | 267 kts | 27° |
| 2026-04-26 15:10 | 46.82872 | -2.14227 | 8298 ft | 266 kts | 27° |
| 2026-04-26 15:11 | 46.84518 | -2.12999 | 8012 ft | 265 kts | 27° |
| 2026-04-26 15:11 | 46.86156 | -2.11777 | 7743 ft | 264 kts | 27° |
| 2026-04-26 15:11 | 46.87788 | -2.10559 | 7483 ft | 262 kts | 27° |
| 2026-04-26 15:11 | 46.89338 | -2.09180 | 7178 ft | 262 kts | 43° |
| 2026-04-26 15:12 | 46.90330 | -2.06973 | 6859 ft | 263 kts | 72° |
| 2026-04-26 15:12 | 46.90566 | -2.04326 | 6583 ft | 264 kts | 88° |
| 2026-04-26 15:12 | 46.90565 | -2.01638 | 6326 ft | 263 kts | 90° |
| 2026-04-26 15:12 | 46.90535 | -1.98993 | 6254 ft | 256 kts | 90° |
| 2026-04-26 15:13 | 46.90499 | -1.96365 | 6007 ft | 260 kts | 90° |
| 2026-04-26 15:13 | 46.90457 | -1.93767 | 5982 ft | 251 kts | 90° |
| 2026-04-26 15:13 | 46.90413 | -1.91230 | 5821 ft | 247 kts | 90° |
| 2026-04-26 15:13 | 46.90368 | -1.88718 | 5550 ft | 247 kts | 90° |
| 2026-04-26 15:14 | 46.90323 | -1.86216 | 5372 ft | 243 kts | 90° |
| 2026-04-26 15:14 | 46.90553 | -1.83835 | 5275 ft | 234 kts | 73° |
| 2026-04-26 15:14 | 46.91037 | -1.81580 | 5117 ft | 228 kts | 71° |
| 2026-04-26 15:14 | 46.91623 | -1.79504 | 4919 ft | 217 kts | 52° |
| 2026-04-26 15:15 | 46.92805 | -1.78311 | 4735 ft | 204 kts | 23° |
| 2026-04-26 15:15 | 46.94063 | -1.77407 | 4464 ft | 200 kts | 29° |
| 2026-04-26 15:15 | 46.95273 | -1.76431 | 4188 ft | 198 kts | 29° |
| 2026-04-26 15:15 | 46.96476 | -1.75485 | 3917 ft | 193 kts | 28° |
| 2026-04-26 15:16 | 46.97645 | -1.74582 | 3666 ft | 186 kts | 28° |
| 2026-04-26 15:16 | 46.98774 | -1.73718 | 3413 ft | 180 kts | 28° |
| 2026-04-26 15:16 | 46.99853 | -1.72891 | 3187 ft | 171 kts | 28° |
| 2026-04-26 15:16 | 47.00897 | -1.72093 | 2950 ft | 166 kts | 28° |
| 2026-04-26 15:17 | 47.01914 | -1.71316 | 2751 ft | 164 kts | 28° |
| 2026-04-26 15:17 | 47.02581 | -1.70806 | 2631 ft | 163 kts | 28° |
| 2026-04-26 15:17 | 47.03930 | -1.69773 | 2326 ft | 161 kts | 28° |
| 2026-04-26 15:17 | 47.04912 | -1.69025 | 2115 ft | 158 kts | 27° |
| 2026-04-26 15:18 | 47.05857 | -1.68301 | 1903 ft | 154 kts | 27° |
| 2026-04-26 15:18 | 47.06815 | -1.67570 | 1713 ft | 157 kts | 27° |
| 2026-04-26 15:18 | 47.07800 | -1.66819 | 1503 ft | 158 kts | 27° |
| 2026-04-26 15:18 | 47.08776 | -1.66069 | 1293 ft | 157 kts | 28° |
| 2026-04-26 15:19 | 47.09748 | -1.65322 | 1080 ft | 158 kts | 27° |
| 2026-04-26 15:19 | 47.10721 | -1.64578 | 870 ft | 157 kts | 28° |
| 2026-04-26 15:19 | 47.11690 | -1.63840 | 658 ft | 156 kts | 27° |
| 2026-04-26 15:19 | 47.12653 | -1.63103 | 452 ft | 156 kts | 27° |
| 2026-04-26 15:20 | 47.13618 | -1.62368 | 242 ft | 157 kts | 27° |
| 2026-04-26 15:20 | 47.14572 | -1.61639 | 99 ft | 150 kts | 26° |
| 2026-04-26 15:20 | 47.15378 | -1.61031 | 94 ft | 101 kts | 27° |
| 2026-04-26 15:20 | 47.15815 | -1.60698 | 94 ft | 52 kts | 27° |
| 2026-04-26 15:21 | 47.16119 | -1.60461 | 94 ft | 46 kts | 26° |
| 2026-04-26 15:21 | 47.16304 | -1.60322 | 91 ft | 16 kts | 24° |
| 2026-04-26 15:21 | 47.16401 | -1.60248 | 89 ft | 15 kts | 28° |
| 2026-04-26 15:21 | 47.16437 | -1.60126 | 88 ft | 15 kts | 118° |
| 2026-04-26 15:22 | 47.16352 | -1.60062 | 90 ft | 13 kts | 166° |
| 2026-04-26 15:22 | 47.16270 | -1.60080 | 92 ft | 12 kts | 208° |
| 2026-04-26 15:22 | 47.16197 | -1.60137 | 93 ft | 12 kts | 208° |
| 2026-04-26 15:22 | 47.16126 | -1.60191 | 93 ft | 11 kts | 207° |
| 2026-04-26 15:23 | 47.16056 | -1.60243 | 91 ft | 11 kts | 208° |
| 2026-04-26 15:23 | 47.15988 | -1.60294 | 95 ft | 11 kts | 208° |
| 2026-04-26 15:23 | 47.15922 | -1.60345 | 93 ft | 10 kts | 205° |
| 2026-04-26 15:23 | 47.15859 | -1.60394 | 95 ft | 10 kts | 208° |
| 2026-04-26 15:24 | 47.15799 | -1.60441 | 96 ft | 9 kts | 208° |
| 2026-04-26 15:24 | 47.15744 | -1.60480 | 97 ft | 9 kts | 207° |
| 2026-04-26 15:24 | 47.15691 | -1.60521 | 97 ft | 9 kts | 208° |
| 2026-04-26 15:24 | 47.15635 | -1.60562 | 98 ft | 9 kts | 195° |
| 2026-04-26 15:25 | 47.15579 | -1.60523 | 99 ft | 9 kts | 128° |
| 2026-04-26 15:25 | 47.15553 | -1.60474 | 98 ft | 9 kts | 127° |
| 2026-04-26 15:25 | 47.15520 | -1.60363 | 99 ft | 9 kts | 84° |
| 2026-04-26 15:25 | 47.15551 | -1.60294 | 99 ft | 6 kts | 33° |
| 2026-04-26 15:26 | 47.15587 | -1.60273 | 99 ft | 5 kts | 21° |
| 2026-04-26 15:26 | 47.15615 | -1.60232 | 98 ft | 6 kts | 56° |
| 2026-04-26 15:26 | 47.15636 | -1.60185 | 96 ft | 1 kts | 58° |
| 2026-04-26 15:26 | 47.15642 | -1.60172 | 97 ft | 2 kts | 59° |
| 2026-04-26 15:27 | 47.15646 | -1.60161 | 97 ft | 0 kts | 58° |